createdAt,value
2022-09-28T00:01:07.683Z,93.32
2022-09-28T00:03:35.922Z,93.21
2022-09-28T00:06:05.057Z,94.30
2022-09-28T00:08:33.133Z,94.01
2022-09-28T00:11:00.811Z,94.58
2022-09-28T00:13:29.598Z,94.58
2022-09-28T00:16:04.201Z,94.61
2022-09-28T00:18:32.705Z,94.90
2022-09-28T00:21:05.714Z,93.64
2022-09-28T00:23:34.457Z,95.26
2022-09-28T00:26:05.740Z,95.72
2022-09-28T00:28:33.817Z,95.35
2022-09-28T00:31:03.081Z,95.03
2022-09-28T00:33:30.845Z,94.24
2022-09-28T00:35:59.233Z,94.83
2022-09-28T00:38:28.648Z,94.29
2022-09-28T00:40:56.754Z,93.07
2022-09-28T00:43:25.442Z,93.40
2022-09-28T00:45:59.920Z,93.18
2022-09-28T00:48:33.375Z,95.05
2022-09-28T00:51:04.677Z,95.46
2022-09-28T00:53:36.523Z,95.84
2022-09-28T00:56:09.170Z,96.18
2022-09-28T00:58:41.951Z,97.18
2022-09-28T01:01:09.791Z,98.25
2022-09-28T01:03:41.333Z,97.17
2022-09-28T01:06:10.469Z,96.30
2022-09-28T01:08:40.442Z,94.63
2022-09-28T01:11:08.262Z,94.59
2022-09-28T01:13:36.067Z,95.13
2022-09-28T01:16:13.158Z,95.26
2022-09-28T01:18:53.710Z,94.30
2022-09-28T01:21:23.267Z,93.69
2022-09-28T01:24:36.045Z,94.57
2022-09-28T01:27:13.977Z,96.04
2022-09-28T01:29:58.070Z,95.74
2022-09-28T01:32:36.668Z,93.64
2022-09-28T01:35:08.844Z,94.89
2022-09-28T01:37:43.449Z,95.18
2022-09-28T01:40:13.190Z,95.19
2022-09-28T01:42:46.882Z,94.31
2022-09-28T01:45:21.644Z,92.42
2022-09-28T01:47:51.152Z,91.72
2022-09-28T01:50:23.719Z,93.69
2022-09-28T01:52:55.745Z,93.94
2022-09-28T01:55:30.823Z,92.60
2022-09-28T01:58:04.390Z,92.62
2022-09-28T02:00:33.512Z,90.90
2022-09-28T02:03:06.830Z,92.21
2022-09-28T02:05:36.800Z,91.86
2022-09-28T02:08:10.059Z,91.18
2022-09-28T02:10:43.501Z,91.91
2022-09-28T02:13:17.377Z,91.47
2022-09-28T02:15:52.681Z,92.57
2022-09-28T02:18:20.530Z,91.73
2022-09-28T02:20:55.150Z,90.91
2022-09-28T02:23:24.487Z,90.14
2022-09-28T02:25:59.906Z,90.26
2022-09-28T02:28:29.182Z,90.75
2022-09-28T02:30:57.086Z,90.15
2022-09-28T02:33:30.321Z,89.87
2022-09-28T02:35:59.460Z,92.24
2022-09-28T02:38:27.078Z,94.17
2022-09-28T02:41:02.585Z,93.96
2022-09-28T02:43:41.186Z,93.93
2022-09-28T02:46:18.622Z,93.66
2022-09-28T02:49:17.496Z,93.11
2022-09-28T02:51:59.477Z,94.18
2022-09-28T02:54:57.472Z,93.29
2022-09-28T02:57:36.995Z,93.42
2022-09-28T03:00:10.200Z,93.79
2022-09-28T03:02:48.775Z,95.91
2022-09-28T03:05:20.505Z,93.75
2022-09-28T03:07:58.068Z,91.83
2022-09-28T03:10:31.233Z,91.66
2022-09-28T03:12:59.823Z,91.41
2022-09-28T03:15:30.536Z,92.38
2022-09-28T03:17:58.849Z,92.06
2022-09-28T03:20:27.433Z,93.73
2022-09-28T03:23:20.169Z,90.95
2022-09-28T03:25:43.263Z,89.95
2022-09-28T03:28:10.922Z,89.60
2022-09-28T03:30:40.162Z,90.25
2022-09-28T03:33:07.836Z,90.75
2022-09-28T03:35:35.824Z,91.23
2022-09-28T03:38:03.536Z,91.05
2022-09-28T03:40:31.239Z,90.77
2022-09-28T03:42:59.947Z,90.23
2022-09-28T03:45:27.771Z,90.75
2022-09-28T03:47:56.899Z,90.50
2022-09-28T03:50:24.670Z,89.82
2022-09-28T03:52:52.454Z,89.45
2022-09-28T03:55:20.159Z,89.77
2022-09-28T03:57:54.542Z,89.38
2022-09-28T04:00:23.040Z,87.57
2022-09-28T04:02:50.819Z,87.23
2022-09-28T04:05:19.850Z,88.09
2022-09-28T04:07:47.590Z,86.55
2022-09-28T04:10:15.244Z,89.08
2022-09-28T04:12:42.916Z,88.59
2022-09-28T04:15:11.422Z,89.48
2022-09-28T04:17:40.343Z,88.24
2022-09-28T04:20:09.000Z,88.06
2022-09-28T04:22:38.324Z,88.64
2022-09-28T04:25:06.853Z,88.58
2022-09-28T04:27:48.532Z,89.75
2022-09-28T04:30:16.896Z,88.95
2022-09-28T04:32:44.601Z,90.87
2022-09-28T04:35:13.463Z,91.60
2022-09-28T04:37:42.659Z,90.58
2022-09-28T04:40:11.262Z,89.69
2022-09-28T04:42:38.935Z,88.31
2022-09-28T04:45:08.054Z,89.48
2022-09-28T04:47:35.815Z,88.67
2022-09-28T04:50:03.481Z,90.31
2022-09-28T04:52:31.172Z,90.53
2022-09-28T04:55:00.424Z,90.20
2022-09-28T04:57:28.082Z,90.10
2022-09-28T04:59:55.809Z,90.34
2022-09-28T05:02:24.706Z,89.94
2022-09-28T05:04:53.368Z,89.24
2022-09-28T05:07:21.044Z,88.75
2022-09-28T05:09:48.716Z,89.03
2022-09-28T05:12:17.962Z,88.99
2022-09-28T05:14:47.785Z,87.89
2022-09-28T05:17:15.660Z,90.51
2022-09-28T05:19:43.431Z,91.16
2022-09-28T05:22:14.750Z,90.54
2022-09-28T05:24:42.815Z,91.03
2022-09-28T05:27:10.543Z,89.51
2022-09-28T05:29:39.574Z,88.82
2022-09-28T05:32:07.351Z,89.41
2022-09-28T05:34:35.101Z,91.58
2022-09-28T05:37:02.810Z,93.56
2022-09-28T05:39:30.491Z,96.06
2022-09-28T05:41:58.782Z,95.30
2022-09-28T05:44:26.500Z,95.38
2022-09-28T05:46:55.554Z,93.71
2022-09-28T05:49:23.396Z,92.62
2022-09-28T05:51:51.105Z,90.59
2022-09-28T05:54:18.880Z,90.14
2022-09-28T05:56:46.683Z,90.35
2022-09-28T05:59:14.507Z,90.75
2022-09-28T06:01:42.314Z,93.89
2022-09-28T06:04:11.478Z,92.88
2022-09-28T06:06:39.339Z,92.66
2022-09-28T06:09:07.070Z,90.76
2022-09-28T06:11:34.776Z,91.71
2022-09-28T06:14:02.555Z,94.74
2022-09-28T06:16:30.661Z,95.37
2022-09-28T06:18:58.431Z,93.22
2022-09-28T06:21:27.599Z,93.31
2022-09-28T06:23:55.290Z,91.83
2022-09-28T06:26:23.045Z,89.01
2022-09-28T06:28:50.758Z,88.46
2022-09-28T06:31:19.814Z,88.48
2022-09-28T06:33:49.973Z,88.26
2022-09-28T06:36:18.217Z,86.49
2022-09-28T06:38:47.603Z,90.46
2022-09-28T06:41:15.851Z,90.17
2022-09-28T06:43:43.572Z,89.68
2022-09-28T06:46:11.479Z,91.61
2022-09-28T06:48:39.224Z,88.83
2022-09-28T06:51:07.520Z,89.46
2022-09-28T06:53:35.830Z,88.96
2022-09-28T06:56:04.961Z,87.60
2022-09-28T06:58:32.598Z,86.77
2022-09-28T07:01:00.484Z,86.96
2022-09-28T07:03:28.716Z,89.76
2022-09-28T07:05:57.348Z,90.04
2022-09-28T07:08:28.649Z,92.63
2022-09-28T07:10:57.158Z,91.87
2022-09-28T07:16:16.208Z,88.70
2022-09-28T07:18:43.894Z,86.61
2022-09-28T07:21:22.462Z,86.38
2022-09-28T07:23:54.277Z,85.59
2022-09-28T07:26:24.479Z,86.03
2022-09-28T07:28:55.802Z,86.83
2022-09-28T07:31:25.241Z,86.63
2022-09-28T07:33:54.051Z,86.82
2022-09-28T07:36:22.723Z,87.23
2022-09-28T07:38:50.745Z,85.41
2022-09-28T07:41:22.747Z,85.62
2022-09-28T07:43:50.883Z,84.25
2022-09-28T07:46:21.278Z,85.56
2022-09-28T07:48:49.585Z,89.18
2022-09-28T07:51:19.781Z,88.47
2022-09-28T07:53:48.076Z,89.31
2022-09-28T07:56:17.449Z,91.19
2022-09-28T07:58:45.151Z,92.00
2022-09-28T08:01:14.920Z,91.81
2022-09-28T08:03:47.170Z,89.04
2022-09-28T08:06:17.079Z,88.21
2022-09-28T08:08:45.247Z,90.60
2022-09-28T08:11:14.118Z,90.63
2022-09-28T08:13:42.006Z,91.79
2022-09-28T08:16:09.709Z,89.99
2022-09-28T08:18:37.678Z,92.21
2022-09-28T08:21:25.243Z,92.28
2022-09-28T08:23:53.179Z,93.40
2022-09-28T08:26:20.947Z,92.40
2022-09-28T08:28:48.585Z,89.66
2022-09-28T08:31:16.330Z,90.65
2022-09-28T08:33:44.039Z,93.09
2022-09-28T08:36:13.052Z,88.73
2022-09-28T08:38:43.504Z,93.43
2022-09-28T08:41:19.886Z,95.22
2022-09-28T08:44:06.918Z,92.09
2022-09-28T08:46:37.867Z,90.38
2022-09-28T08:49:24.995Z,87.77
2022-09-28T08:52:00.499Z,85.63
2022-09-28T08:54:38.947Z,85.28
2022-09-28T08:57:13.509Z,85.84
2022-09-28T08:59:49.237Z,83.17
2022-09-28T09:02:22.336Z,81.57
2022-09-28T09:04:51.941Z,78.76
2022-09-28T09:07:32.285Z,80.44
2022-09-28T09:10:11.566Z,78.08
2022-09-28T09:12:49.671Z,79.02
2022-09-28T09:15:35.288Z,76.33
2022-09-28T09:18:20.218Z,76.60
2022-09-28T09:20:53.327Z,75.80
2022-09-28T09:23:35.248Z,75.73
2022-09-28T09:26:15.271Z,77.38
2022-09-28T09:29:01.726Z,76.11
2022-09-28T09:31:43.115Z,75.46
2022-09-28T09:34:35.156Z,77.38
2022-09-28T09:37:23.285Z,77.68
2022-09-28T09:40:05.053Z,78.60
2022-09-28T09:42:49.057Z,78.61
2022-09-28T09:45:44.069Z,79.36
2022-09-28T09:48:19.014Z,78.29
2022-09-28T09:50:50.672Z,76.18
2022-09-28T09:53:25.379Z,78.66
2022-09-28T09:55:59.633Z,77.31
2022-09-28T09:58:31.446Z,75.87
2022-09-28T10:01:10.251Z,76.48
2022-09-28T10:03:44.309Z,79.11
2022-09-28T10:06:16.246Z,76.91
2022-09-28T10:08:50.032Z,78.22
2022-09-28T10:11:24.262Z,76.97
2022-09-28T10:13:52.012Z,77.40
2022-09-28T10:16:20.636Z,77.84
2022-09-28T10:18:49.749Z,78.93
2022-09-28T10:21:21.494Z,77.16
2022-09-28T10:23:56.106Z,76.40
2022-09-28T10:26:31.129Z,74.87
2022-09-28T10:29:02.973Z,74.72
2022-09-28T10:31:42.145Z,75.33
2022-09-28T10:34:14.213Z,74.36
2022-09-28T10:36:55.162Z,73.38
2022-09-28T10:39:34.296Z,75.44
2022-09-28T10:42:07.274Z,74.72
2022-09-28T10:44:39.471Z,74.81
2022-09-28T10:47:10.061Z,74.48
2022-09-28T10:49:47.012Z,74.29
2022-09-28T10:52:35.707Z,75.21
2022-09-28T10:55:04.220Z,72.68
2022-09-28T10:57:37.719Z,72.75
2022-09-28T11:00:08.016Z,73.61
2022-09-28T11:02:37.713Z,74.30
2022-09-28T11:05:07.576Z,74.07
2022-09-28T11:07:46.442Z,71.26
2022-09-28T11:10:21.921Z,72.19
2022-09-28T11:12:51.903Z,71.91
2022-09-28T11:15:22.727Z,71.28
2022-09-28T11:17:50.555Z,71.51
2022-09-28T11:20:35.965Z,72.81
2022-09-28T11:23:19.256Z,74.03
2022-09-28T11:25:57.907Z,73.54
2022-09-28T11:28:31.489Z,71.67
2022-09-28T11:31:00.287Z,73.04
2022-09-28T11:33:33.516Z,71.54
2022-09-28T11:36:21.305Z,71.77
2022-09-28T11:39:00.312Z,71.86
2022-09-28T11:41:43.330Z,72.16
2022-09-28T11:44:36.247Z,73.08
2022-09-28T11:47:18.404Z,71.26
2022-09-28T11:49:52.313Z,70.05
2022-09-28T11:52:27.477Z,69.01
2022-09-28T11:55:00.892Z,71.16
2022-09-28T11:57:36.342Z,73.33
2022-09-28T12:00:09.983Z,71.52
2022-09-28T12:02:43.673Z,71.07
2022-09-28T12:05:20.890Z,72.06
2022-09-28T12:07:55.231Z,70.03
2022-09-28T12:10:33.032Z,70.93
2022-09-28T12:13:04.887Z,68.92
2022-09-28T12:16:11.521Z,68.71
2022-09-28T12:18:42.729Z,71.46
2022-09-28T12:21:27.812Z,70.83
2022-09-28T12:24:01.789Z,69.36
2022-09-28T12:26:37.989Z,70.07
2022-09-28T12:29:12.930Z,68.80
2022-09-28T12:31:56.472Z,67.90
2022-09-28T12:34:24.334Z,67.65
2022-09-28T12:37:09.389Z,70.17
2022-09-28T12:40:03.562Z,68.67
2022-09-28T12:42:55.506Z,69.37
2022-09-28T12:45:42.869Z,70.13
2022-09-28T12:48:37.038Z,68.85
2022-09-28T12:51:17.478Z,68.25
2022-09-28T12:54:01.734Z,67.10
2022-09-28T12:56:37.895Z,65.85
2022-09-28T12:59:16.272Z,68.77
2022-09-28T13:02:28.625Z,70.50
2022-09-28T13:05:20.651Z,67.55
2022-09-28T13:07:55.943Z,67.96
2022-09-28T13:10:32.710Z,68.83
2022-09-28T13:13:21.756Z,68.82
2022-09-28T13:15:55.788Z,70.19
2022-09-28T13:18:30.261Z,71.77
2022-09-28T13:21:12.191Z,71.39
2022-09-28T13:23:43.699Z,70.90
2022-09-28T13:26:25.260Z,67.24
2022-09-28T13:28:57.976Z,67.40
2022-09-28T13:31:32.459Z,68.76
2022-09-28T13:34:04.530Z,69.79
2022-09-28T13:36:39.524Z,66.09
2022-09-28T13:39:36.523Z,65.43
2022-09-28T13:42:05.773Z,65.32
2022-09-28T13:44:59.478Z,67.60
2022-09-28T13:47:53.786Z,65.40
2022-09-28T13:50:34.367Z,62.83
2022-09-28T13:53:12.836Z,61.31
2022-09-28T13:55:54.774Z,61.22
2022-09-28T13:58:26.642Z,62.08
2022-09-28T14:01:00.724Z,62.80
2022-09-28T14:03:43.261Z,62.89
2022-09-28T14:06:23.640Z,62.44
2022-09-28T14:09:24.889Z,58.75
2022-09-28T14:12:01.549Z,58.62
2022-09-28T14:14:48.541Z,59.19
2022-09-28T14:17:59.075Z,59.89
2022-09-28T14:20:31.396Z,60.63
2022-09-28T14:23:44.326Z,59.89
2022-09-28T14:26:43.989Z,59.57
2022-09-28T14:29:36.181Z,58.98
2022-09-28T14:32:06.891Z,58.88
2022-09-28T14:34:37.718Z,58.69
2022-09-28T14:37:37.915Z,59.87
2022-09-28T14:40:34.866Z,59.75
2022-09-28T14:43:27.295Z,59.76
2022-09-28T14:46:30.413Z,61.33
2022-09-28T14:49:01.752Z,61.98
2022-09-28T14:52:07.369Z,63.19
2022-09-28T14:54:43.125Z,63.65
2022-09-28T14:57:17.923Z,63.66
2022-09-28T14:59:48.351Z,64.66
2022-09-28T15:02:23.067Z,65.78
2022-09-28T15:04:54.962Z,66.11
2022-09-28T15:07:25.367Z,67.14
2022-09-28T15:09:54.354Z,66.90
2022-09-28T15:12:25.388Z,66.59
2022-09-28T15:14:57.359Z,67.08
2022-09-28T15:17:28.299Z,66.66
2022-09-28T15:20:23.268Z,66.93
2022-09-28T15:22:56.593Z,66.54
2022-09-28T15:25:27.819Z,67.18
2022-09-28T15:27:57.965Z,67.07
2022-09-28T15:30:29.450Z,67.09
2022-09-28T15:33:18.824Z,66.92
2022-09-28T15:35:48.107Z,68.23
2022-09-28T15:38:18.190Z,67.66
2022-09-28T15:40:47.618Z,66.94
2022-09-28T15:43:26.904Z,67.67
2022-09-28T15:46:03.443Z,68.61
2022-09-28T15:48:37.719Z,68.56
2022-09-28T15:51:10.904Z,68.39
2022-09-28T15:53:44.145Z,71.70
2022-09-28T15:56:12.359Z,71.50
2022-09-28T15:58:40.864Z,72.04
2022-09-28T16:01:27.714Z,70.44
2022-09-28T16:03:55.738Z,71.77
2022-09-28T16:06:24.169Z,71.07
2022-09-28T16:08:51.883Z,72.35
2022-09-28T16:11:24.205Z,73.12
2022-09-28T16:14:01.847Z,72.92
2022-09-28T16:16:35.137Z,74.01
2022-09-28T16:19:04.181Z,73.24
2022-09-28T16:21:44.519Z,72.85
2022-09-28T16:24:22.151Z,71.86
2022-09-28T16:26:56.307Z,72.18
2022-09-28T16:29:35.742Z,72.40
2022-09-28T16:32:38.403Z,73.12
2022-09-28T16:35:19.622Z,74.39
2022-09-28T16:37:49.223Z,74.49
2022-09-28T16:40:17.176Z,73.30
2022-09-28T16:42:49.098Z,74.09
2022-09-28T16:45:20.801Z,75.50
2022-09-28T16:47:52.337Z,75.73
2022-09-28T16:50:21.329Z,75.49
2022-09-28T16:53:09.270Z,76.34
2022-09-28T16:55:41.183Z,78.45
2022-09-28T16:58:09.758Z,78.76
2022-09-28T17:00:37.579Z,77.25
2022-09-28T17:03:14.171Z,77.67
2022-09-28T17:05:42.193Z,77.18
2022-09-28T17:08:14.701Z,78.08
2022-09-28T17:11:09.858Z,77.67
2022-09-28T17:13:35.253Z,78.07
2022-09-28T17:16:06.273Z,78.24
2022-09-28T17:18:37.500Z,77.94
2022-09-28T17:21:06.595Z,78.78
2022-09-28T17:23:34.567Z,79.45
2022-09-28T17:26:03.031Z,80.15
2022-09-28T17:28:33.781Z,80.35
2022-09-28T17:31:01.631Z,80.70
2022-09-28T17:33:29.757Z,80.37
2022-09-28T17:36:01.490Z,80.81
2022-09-28T17:38:29.409Z,80.97
2022-09-28T17:40:57.283Z,80.93
2022-09-28T17:43:25.113Z,80.66
2022-09-28T17:45:53.006Z,80.70
2022-09-28T17:48:22.857Z,81.20
2022-09-28T17:50:51.230Z,80.45
2022-09-28T17:53:20.347Z,80.70
2022-09-28T17:55:48.106Z,81.07
2022-09-28T17:58:18.649Z,81.52
2022-09-28T18:00:47.801Z,80.82
2022-09-28T18:03:18.385Z,82.51
2022-09-28T18:05:48.267Z,81.41
2022-09-28T18:08:19.473Z,81.91
2022-09-28T18:10:48.618Z,81.67
2022-09-28T18:13:17.403Z,81.41
2022-09-28T18:15:45.166Z,81.45
2022-09-28T18:18:12.986Z,82.76
2022-09-28T18:20:41.929Z,82.73
2022-09-28T18:23:09.588Z,82.92
2022-09-28T18:25:40.773Z,83.16
2022-09-28T18:28:10.090Z,82.93
2022-09-28T18:30:40.705Z,83.35
2022-09-28T18:33:09.341Z,82.98
2022-09-28T18:35:37.837Z,84.24
2022-09-28T18:38:06.668Z,82.88
2022-09-28T18:40:34.815Z,83.50
2022-09-28T18:43:02.731Z,83.46
2022-09-28T18:45:31.875Z,82.37
2022-09-28T18:47:59.669Z,82.91
2022-09-28T18:50:27.475Z,83.11
2022-09-28T18:53:11.261Z,82.34
2022-09-28T18:55:39.858Z,82.32
2022-09-28T18:58:08.215Z,82.95
2022-09-28T19:00:38.932Z,83.48
2022-09-28T19:03:07.072Z,83.13
2022-09-28T19:05:35.075Z,83.59
2022-09-28T19:08:03.351Z,83.92
2022-09-28T19:10:31.219Z,84.37
2022-09-28T19:12:58.857Z,84.72
2022-09-28T19:15:26.771Z,84.30
2022-09-28T19:17:57.069Z,84.82
2022-09-28T19:20:24.742Z,84.70
2022-09-28T19:22:52.428Z,86.09
2022-09-28T19:25:20.099Z,84.57
2022-09-28T19:27:48.790Z,83.96
2022-09-28T19:30:16.595Z,85.05
2022-09-28T19:32:44.511Z,85.31
2022-09-28T19:35:13.670Z,85.77
2022-09-28T19:37:42.215Z,86.43
2022-09-28T19:40:10.456Z,85.00
2022-09-28T19:42:39.614Z,85.94
2022-09-28T19:45:10.901Z,85.98
2022-09-28T19:47:39.025Z,86.68
2022-09-28T19:50:07.555Z,85.75
2022-09-28T19:52:36.679Z,86.02
2022-09-28T19:55:04.465Z,85.37
2022-09-28T19:57:33.652Z,85.47
2022-09-28T20:00:03.545Z,85.37
2022-09-28T20:02:31.744Z,87.57
2022-09-28T20:04:59.609Z,86.36
2022-09-28T20:07:27.502Z,86.40
2022-09-28T20:09:56.582Z,87.21
2022-09-28T20:12:24.335Z,86.66
2022-09-28T20:14:52.083Z,86.94
2022-09-28T20:17:21.677Z,86.16
2022-09-28T20:19:51.708Z,86.03
2022-09-28T20:22:20.082Z,85.96
2022-09-28T20:24:47.993Z,85.65
2022-09-28T20:27:17.128Z,86.89
2022-09-28T20:29:44.809Z,86.22
2022-09-28T20:32:12.583Z,86.05
2022-09-28T20:34:40.373Z,86.21
2022-09-28T20:37:08.112Z,85.40
2022-09-28T20:39:35.924Z,85.77
2022-09-28T20:42:03.707Z,88.06
2022-09-28T20:44:32.804Z,87.64
2022-09-28T20:47:01.117Z,87.51
2022-09-28T20:49:29.031Z,86.34
2022-09-28T20:51:56.933Z,85.83
2022-09-28T20:54:25.572Z,85.65
2022-09-28T20:56:53.484Z,84.98
2022-09-28T20:59:22.946Z,85.45
2022-09-28T21:01:52.335Z,84.92
2022-09-28T21:04:20.570Z,85.58
2022-09-28T21:06:48.612Z,85.58
2022-09-28T21:09:16.404Z,84.96
2022-09-28T21:11:44.111Z,85.88
2022-09-28T21:14:11.759Z,87.40
2022-09-28T21:16:39.589Z,86.84
2022-09-28T21:19:08.635Z,86.27
2022-09-28T21:21:36.354Z,85.72
2022-09-28T21:24:04.441Z,86.26
2022-09-28T21:26:33.026Z,86.85
2022-09-28T21:29:02.838Z,86.42
2022-09-28T21:31:32.566Z,87.14
2022-09-28T21:34:01.072Z,86.96
2022-09-28T21:36:30.215Z,87.78
2022-09-28T21:38:58.329Z,89.86
2022-09-28T21:41:26.739Z,89.24
2022-09-28T21:43:54.516Z,88.71
2022-09-28T21:46:22.555Z,90.00
2022-09-28T21:48:53.370Z,90.61
2022-09-28T21:51:22.026Z,91.62
2022-09-28T21:53:51.197Z,91.14
2022-09-28T21:56:18.895Z,91.43
2022-09-28T21:58:47.086Z,92.02
2022-09-28T22:01:16.778Z,91.42
2022-09-28T22:03:46.689Z,91.62
2022-09-28T22:06:15.527Z,90.78
2022-09-28T22:08:43.566Z,90.34
2022-09-28T22:11:14.800Z,90.02
2022-09-28T22:13:44.656Z,90.24
2022-09-28T22:16:13.327Z,91.47
2022-09-28T22:18:41.732Z,91.84
2022-09-28T22:21:13.624Z,91.90
2022-09-28T22:23:42.095Z,92.65
2022-09-28T22:26:13.260Z,91.92
2022-09-28T22:28:46.288Z,91.87
2022-09-28T22:31:14.927Z,92.25
2022-09-28T22:33:42.868Z,92.92
2022-09-28T22:36:10.666Z,92.10
2022-09-28T22:38:39.429Z,90.64
2022-09-28T22:41:07.311Z,93.39
2022-09-28T22:43:36.635Z,91.97
2022-09-28T22:46:06.011Z,90.60
2022-09-28T22:48:34.754Z,90.48
2022-09-28T22:51:03.361Z,91.04
2022-09-28T22:53:31.434Z,90.92
2022-09-28T22:56:01.426Z,90.33
2022-09-28T22:58:29.199Z,90.31
2022-09-28T23:00:58.349Z,89.95
2022-09-28T23:03:25.977Z,89.33
2022-09-28T23:05:54.294Z,88.95
2022-09-28T23:08:22.180Z,88.24
2022-09-28T23:10:50.260Z,90.15
2022-09-28T23:13:17.989Z,89.09
2022-09-28T23:15:55.045Z,88.47
2022-09-28T23:18:24.292Z,89.24
2022-09-28T23:20:55.844Z,90.70
2022-09-28T23:23:23.984Z,89.67
2022-09-28T23:25:51.858Z,91.61
2022-09-28T23:28:20.054Z,91.14
2022-09-28T23:30:48.261Z,91.88
2022-09-28T23:33:16.693Z,89.51
2022-09-28T23:35:46.079Z,89.63
2022-09-28T23:38:14.960Z,90.27
2022-09-28T23:40:42.800Z,90.38
2022-09-28T23:43:10.551Z,90.33
2022-09-28T23:45:38.205Z,90.62
2022-09-28T23:48:06.284Z,90.05
2022-09-28T23:50:34.089Z,89.55
2022-09-28T23:53:03.215Z,89.33
2022-09-28T23:55:30.896Z,89.73
2022-09-28T23:57:58.999Z,89.18
